Terminal Aerodrome Forecast
Issued by NWS Binghamton, NY

Current Version | Previous Version | Text Only | Print | Product List | Glossary On
Versions: 1 2 3 4 5 6 7 8 9 10 11 12 13 14 15 16 17 18 19 20 21 22 23 24
000
FTUS41 KBGM 230900 AAB
TAFBGM
TAF AMD
KBGM 230900Z 2309/2406 34014KT P6SM OVC020
     FM231600 34012G20KT P6SM OVC025
      TEMPO 2316/2320 4SM -RA
     FM232300 33012KT P6SM OVC016=

USA.gov is the U.S. government's official web portal to all federal, state and local government web resources and services.